sensor_id;sensor_type;location;lat;lon;timestamp;temperature;humidity
37356;DHT22;48747;50.250;18.848;2022-09-14T00:00:43;16.80;99.90
37356;DHT22;48747;50.250;18.848;2022-09-14T00:02:46;16.80;99.90
37356;DHT22;48747;50.250;18.848;2022-09-14T00:04:49;16.80;99.90
37356;DHT22;48747;50.250;18.848;2022-09-14T00:06:52;16.80;99.90
37356;DHT22;48747;50.250;18.848;2022-09-14T00:08:57;16.70;99.90
37356;DHT22;48747;50.250;18.848;2022-09-14T00:11:07;16.70;99.90
37356;DHT22;48747;50.250;18.848;2022-09-14T00:13:12;16.70;99.90
37356;DHT22;48747;50.250;18.848;2022-09-14T00:15:15;16.70;99.90
37356;DHT22;48747;50.250;18.848;2022-09-14T00:17:18;16.70;99.90
37356;DHT22;48747;50.250;18.848;2022-09-14T00:19:25;16.80;99.90
37356;DHT22;48747;50.250;18.848;2022-09-14T00:21:28;16.80;99.90
37356;DHT22;48747;50.250;18.848;2022-09-14T00:23:33;16.70;99.90
37356;DHT22;48747;50.250;18.848;2022-09-14T00:25:36;16.70;99.90
37356;DHT22;48747;50.250;18.848;2022-09-14T00:27:39;16.70;99.90
37356;DHT22;48747;50.250;18.848;2022-09-14T00:29:42;16.70;99.90
37356;DHT22;48747;50.250;18.848;2022-09-14T00:31:45;16.70;99.90
37356;DHT22;48747;50.250;18.848;2022-09-14T00:33:49;16.70;99.90
37356;DHT22;48747;50.250;18.848;2022-09-14T00:35:53;16.60;99.90
37356;DHT22;48747;50.250;18.848;2022-09-14T00:37:56;16.60;99.90
37356;DHT22;48747;50.250;18.848;2022-09-14T00:39:59;16.60;99.90
37356;DHT22;48747;50.250;18.848;2022-09-14T00:42:03;16.60;99.90
37356;DHT22;48747;50.250;18.848;2022-09-14T00:46:17;16.60;99.90
37356;DHT22;48747;50.250;18.848;2022-09-14T00:48:23;16.60;99.90
37356;DHT22;48747;50.250;18.848;2022-09-14T00:50:27;16.60;99.90
37356;DHT22;48747;50.250;18.848;2022-09-14T00:52:31;16.60;99.90
37356;DHT22;48747;50.250;18.848;2022-09-14T00:54:38;16.70;99.90
37356;DHT22;48747;50.250;18.848;2022-09-14T00:56:41;16.70;99.90
37356;DHT22;48747;50.250;18.848;2022-09-14T00:58:46;16.60;99.90
37356;DHT22;48747;50.250;18.848;2022-09-14T01:00:51;16.60;99.90
37356;DHT22;48747;50.250;18.848;2022-09-14T01:02:55;16.60;99.90
37356;DHT22;48747;50.250;18.848;2022-09-14T01:05:00;16.60;99.90
37356;DHT22;48747;50.250;18.848;2022-09-14T01:07:32;16.60;99.90
37356;DHT22;48747;50.250;18.848;2022-09-14T01:14:15;16.60;99.90
37356;DHT22;48747;50.250;18.848;2022-09-14T01:16:25;16.60;99.90
37356;DHT22;48747;50.250;18.848;2022-09-14T01:18:31;16.50;99.90
37356;DHT22;48747;50.250;18.848;2022-09-14T01:20:40;16.50;99.90
37356;DHT22;48747;50.250;18.848;2022-09-14T01:25:13;16.30;99.90
37356;DHT22;48747;50.250;18.848;2022-09-14T01:27:28;16.30;99.90
37356;DHT22;48747;50.250;18.848;2022-09-14T01:29:49;16.30;99.90
37356;DHT22;48747;50.250;18.848;2022-09-14T01:31:55;16.30;99.90
37356;DHT22;48747;50.250;18.848;2022-09-14T01:34:06;16.30;99.90
37356;DHT22;48747;50.250;18.848;2022-09-14T01:36:14;16.20;99.90
37356;DHT22;48747;50.250;18.848;2022-09-14T01:38:46;16.20;99.90
37356;DHT22;48747;50.250;18.848;2022-09-14T01:40:50;16.20;99.90
37356;DHT22;48747;50.250;18.848;2022-09-14T01:43:02;16.10;99.90
37356;DHT22;48747;50.250;18.848;2022-09-14T01:45:10;16.10;99.90
37356;DHT22;48747;50.250;18.848;2022-09-14T01:47:20;16.00;99.90
37356;DHT22;48747;50.250;18.848;2022-09-14T01:51:42;15.90;99.90
37356;DHT22;48747;50.250;18.848;2022-09-14T01:53:54;15.90;99.90
37356;DHT22;48747;50.250;18.848;2022-09-14T01:58:22;15.90;99.90
37356;DHT22;48747;50.250;18.848;2022-09-14T02:00:21;15.90;99.90
37356;DHT22;48747;50.250;18.848;2022-09-14T02:02:30;15.90;99.90
37356;DHT22;48747;50.250;18.848;2022-09-14T02:04:57;15.80;99.90
37356;DHT22;48747;50.250;18.848;2022-09-14T02:07:00;15.80;99.90
37356;DHT22;48747;50.250;18.848;2022-09-14T02:09:05;15.80;99.90
37356;DHT22;48747;50.250;18.848;2022-09-14T02:11:11;15.70;99.90
37356;DHT22;48747;50.250;18.848;2022-09-14T02:13:14;15.70;99.90
37356;DHT22;48747;50.250;18.848;2022-09-14T02:15:17;15.70;99.90
37356;DHT22;48747;50.250;18.848;2022-09-14T02:17:21;15.60;99.90
37356;DHT22;48747;50.250;18.848;2022-09-14T02:19:27;15.60;99.90
37356;DHT22;48747;50.250;18.848;2022-09-14T02:21:31;15.50;99.90
37356;DHT22;48747;50.250;18.848;2022-09-14T02:23:37;15.50;99.90
37356;DHT22;48747;50.250;18.848;2022-09-14T02:25:41;15.40;99.90
37356;DHT22;48747;50.250;18.848;2022-09-14T02:27:44;15.40;99.90
37356;DHT22;48747;50.250;18.848;2022-09-14T02:29:49;15.40;99.90
37356;DHT22;48747;50.250;18.848;2022-09-14T02:32:16;15.40;99.90
37356;DHT22;48747;50.250;18.848;2022-09-14T02:34:39;15.40;99.90
37356;DHT22;48747;50.250;18.848;2022-09-14T02:36:54;15.40;99.90
37356;DHT22;48747;50.250;18.848;2022-09-14T02:41:44;15.30;99.90
37356;DHT22;48747;50.250;18.848;2022-09-14T02:43:54;15.30;99.90
37356;DHT22;48747;50.250;18.848;2022-09-14T02:53:09;15.30;99.90
37356;DHT22;48747;50.250;18.848;2022-09-14T02:55:06;15.20;99.90
37356;DHT22;48747;50.250;18.848;2022-09-14T02:57:10;15.20;99.90
37356;DHT22;48747;50.250;18.848;2022-09-14T02:59:13;15.10;99.90
37356;DHT22;48747;50.250;18.848;2022-09-14T03:01:21;15.10;99.90
37356;DHT22;48747;50.250;18.848;2022-09-14T03:03:23;15.20;99.90
37356;DHT22;48747;50.250;18.848;2022-09-14T03:05:28;15.10;99.90
37356;DHT22;48747;50.250;18.848;2022-09-14T03:07:34;15.10;99.90
37356;DHT22;48747;50.250;18.848;2022-09-14T03:09:35;15.10;99.90
37356;DHT22;48747;50.250;18.848;2022-09-14T03:11:39;15.00;99.90
37356;DHT22;48747;50.250;18.848;2022-09-14T03:13:42;15.00;99.90
37356;DHT22;48747;50.250;18.848;2022-09-14T03:15:45;15.00;99.90
37356;DHT22;48747;50.250;18.848;2022-09-14T03:17:49;14.90;99.90
37356;DHT22;48747;50.250;18.848;2022-09-14T03:19:52;14.90;99.90
37356;DHT22;48747;50.250;18.848;2022-09-14T03:21:56;14.90;99.90
37356;DHT22;48747;50.250;18.848;2022-09-14T03:23:59;14.90;99.90
37356;DHT22;48747;50.250;18.848;2022-09-14T03:26:07;14.90;99.90
37356;DHT22;48747;50.250;18.848;2022-09-14T03:28:11;14.90;99.90
37356;DHT22;48747;50.250;18.848;2022-09-14T03:30:20;14.80;99.90
37356;DHT22;48747;50.250;18.848;2022-09-14T03:32:18;14.80;99.90
37356;DHT22;48747;50.250;18.848;2022-09-14T03:34:21;14.80;99.90
37356;DHT22;48747;50.250;18.848;2022-09-14T03:36:26;14.80;99.90
37356;DHT22;48747;50.250;18.848;2022-09-14T03:38:30;14.80;99.90
37356;DHT22;48747;50.250;18.848;2022-09-14T03:40:33;14.70;99.90
37356;DHT22;48747;50.250;18.848;2022-09-14T03:42:41;14.70;99.90
37356;DHT22;48747;50.250;18.848;2022-09-14T03:44:45;14.70;99.90
37356;DHT22;48747;50.250;18.848;2022-09-14T03:46:48;14.70;99.90
37356;DHT22;48747;50.250;18.848;2022-09-14T03:48:52;14.70;99.90
37356;DHT22;48747;50.250;18.848;2022-09-14T03:50:56;14.70;99.90
37356;DHT22;48747;50.250;18.848;2022-09-14T03:53:00;14.70;99.90
37356;DHT22;48747;50.250;18.848;2022-09-14T03:55:07;14.70;99.90
37356;DHT22;48747;50.250;18.848;2022-09-14T03:57:10;14.70;99.90
37356;DHT22;48747;50.250;18.848;2022-09-14T03:59:13;14.80;99.90
37356;DHT22;48747;50.250;18.848;2022-09-14T04:01:18;14.70;99.90
37356;DHT22;48747;50.250;18.848;2022-09-14T04:03:22;14.70;99.90
37356;DHT22;48747;50.250;18.848;2022-09-14T04:05:25;14.70;99.90
37356;DHT22;48747;50.250;18.848;2022-09-14T04:07:28;14.70;99.90
37356;DHT22;48747;50.250;18.848;2022-09-14T04:09:33;14.70;99.90
37356;DHT22;48747;50.250;18.848;2022-09-14T04:11:36;14.70;99.90
37356;DHT22;48747;50.250;18.848;2022-09-14T04:13:40;14.60;99.90
37356;DHT22;48747;50.250;18.848;2022-09-14T04:15:43;14.60;99.90
37356;DHT22;48747;50.250;18.848;2022-09-14T04:17:46;14.60;99.90
37356;DHT22;48747;50.250;18.848;2022-09-14T04:19:49;14.60;99.90
37356;DHT22;48747;50.250;18.848;2022-09-14T04:21:52;14.60;99.90
37356;DHT22;48747;50.250;18.848;2022-09-14T04:23:56;14.60;99.90
37356;DHT22;48747;50.250;18.848;2022-09-14T04:25:59;14.60;99.90
37356;DHT22;48747;50.250;18.848;2022-09-14T04:28:02;14.60;99.90
37356;DHT22;48747;50.250;18.848;2022-09-14T04:30:07;14.60;99.90
37356;DHT22;48747;50.250;18.848;2022-09-14T04:32:10;14.60;99.90
37356;DHT22;48747;50.250;18.848;2022-09-14T04:34:13;14.60;99.90
37356;DHT22;48747;50.250;18.848;2022-09-14T04:36:19;14.60;99.90
37356;DHT22;48747;50.250;18.848;2022-09-14T04:38:22;14.70;99.90
37356;DHT22;48747;50.250;18.848;2022-09-14T04:40:25;14.60;99.90
37356;DHT22;48747;50.250;18.848;2022-09-14T04:42:29;14.60;99.90
37356;DHT22;48747;50.250;18.848;2022-09-14T04:44:32;14.70;99.90
37356;DHT22;48747;50.250;18.848;2022-09-14T04:46:37;14.70;99.90
37356;DHT22;48747;50.250;18.848;2022-09-14T04:48:42;14.70;99.90
37356;DHT22;48747;50.250;18.848;2022-09-14T04:50:45;14.70;99.90
37356;DHT22;48747;50.250;18.848;2022-09-14T04:52:48;14.70;99.90
37356;DHT22;48747;50.250;18.848;2022-09-14T04:54:51;14.80;99.90
37356;DHT22;48747;50.250;18.848;2022-09-14T04:56:54;14.80;99.90
37356;DHT22;48747;50.250;18.848;2022-09-14T04:58:59;14.80;99.90
37356;DHT22;48747;50.250;18.848;2022-09-14T05:01:05;14.80;99.90
37356;DHT22;48747;50.250;18.848;2022-09-14T05:03:09;14.80;99.90
37356;DHT22;48747;50.250;18.848;2022-09-14T05:05:12;14.80;99.90
37356;DHT22;48747;50.250;18.848;2022-09-14T05:07:15;14.80;99.90
37356;DHT22;48747;50.250;18.848;2022-09-14T05:09:18;14.80;99.90
37356;DHT22;48747;50.250;18.848;2022-09-14T05:11:24;14.90;99.90
37356;DHT22;48747;50.250;18.848;2022-09-14T05:13:27;14.90;99.90
37356;DHT22;48747;50.250;18.848;2022-09-14T05:15:30;14.90;99.90
37356;DHT22;48747;50.250;18.848;2022-09-14T05:17:33;14.90;99.90
37356;DHT22;48747;50.250;18.848;2022-09-14T05:19:36;15.00;99.90
37356;DHT22;48747;50.250;18.848;2022-09-14T05:21:40;15.00;99.90
37356;DHT22;48747;50.250;18.848;2022-09-14T05:23:43;15.10;99.90
37356;DHT22;48747;50.250;18.848;2022-09-14T05:25:51;15.20;99.90
37356;DHT22;48747;50.250;18.848;2022-09-14T05:27:54;15.30;99.90
37356;DHT22;48747;50.250;18.848;2022-09-14T05:29:57;15.50;99.90
37356;DHT22;48747;50.250;18.848;2022-09-14T05:32:00;15.70;99.90
37356;DHT22;48747;50.250;18.848;2022-09-14T05:34:04;15.80;99.90
37356;DHT22;48747;50.250;18.848;2022-09-14T05:36:07;16.00;99.90
37356;DHT22;48747;50.250;18.848;2022-09-14T05:38:11;16.10;99.90
37356;DHT22;48747;50.250;18.848;2022-09-14T05:40:14;16.30;99.90
37356;DHT22;48747;50.250;18.848;2022-09-14T05:42:17;16.40;99.90
37356;DHT22;48747;50.250;18.848;2022-09-14T05:44:20;16.40;99.90
37356;DHT22;48747;50.250;18.848;2022-09-14T05:46:23;16.50;99.90
37356;DHT22;48747;50.250;18.848;2022-09-14T05:48:29;16.50;99.90
37356;DHT22;48747;50.250;18.848;2022-09-14T05:50:32;16.60;99.90
37356;DHT22;48747;50.250;18.848;2022-09-14T05:52:35;16.60;99.90
37356;DHT22;48747;50.250;18.848;2022-09-14T05:54:38;16.60;99.90
37356;DHT22;48747;50.250;18.848;2022-09-14T05:56:41;16.60;99.90
37356;DHT22;48747;50.250;18.848;2022-09-14T05:58:45;16.70;99.90
37356;DHT22;48747;50.250;18.848;2022-09-14T06:00:48;16.70;99.90
37356;DHT22;48747;50.250;18.848;2022-09-14T06:02:52;16.80;99.90
37356;DHT22;48747;50.250;18.848;2022-09-14T06:04:55;16.90;99.90
37356;DHT22;48747;50.250;18.848;2022-09-14T06:06:58;17.00;99.90
37356;DHT22;48747;50.250;18.848;2022-09-14T06:09:02;17.10;99.90
37356;DHT22;48747;50.250;18.848;2022-09-14T06:11:14;17.20;99.90
37356;DHT22;48747;50.250;18.848;2022-09-14T06:13:17;17.40;99.90
37356;DHT22;48747;50.250;18.848;2022-09-14T06:15:20;17.50;99.90
37356;DHT22;48747;50.250;18.848;2022-09-14T06:17:27;17.50;99.90
37356;DHT22;48747;50.250;18.848;2022-09-14T06:19:30;17.60;99.90
37356;DHT22;48747;50.250;18.848;2022-09-14T06:21:34;17.70;99.90
37356;DHT22;48747;50.250;18.848;2022-09-14T06:23:37;17.70;99.90
37356;DHT22;48747;50.250;18.848;2022-09-14T06:25:40;17.80;99.90
37356;DHT22;48747;50.250;18.848;2022-09-14T06:27:43;17.80;99.90
37356;DHT22;48747;50.250;18.848;2022-09-14T06:29:46;17.90;99.90
37356;DHT22;48747;50.250;18.848;2022-09-14T06:31:50;18.00;99.90
37356;DHT22;48747;50.250;18.848;2022-09-14T06:33:55;18.10;99.90
37356;DHT22;48747;50.250;18.848;2022-09-14T06:36:06;18.20;99.90
37356;DHT22;48747;50.250;18.848;2022-09-14T06:38:04;18.30;99.90
37356;DHT22;48747;50.250;18.848;2022-09-14T06:40:07;18.30;99.90
37356;DHT22;48747;50.250;18.848;2022-09-14T06:42:13;18.30;99.90
37356;DHT22;48747;50.250;18.848;2022-09-14T06:44:17;18.40;99.90
37356;DHT22;48747;50.250;18.848;2022-09-14T06:46:23;18.40;99.90
37356;DHT22;48747;50.250;18.848;2022-09-14T06:48:28;18.50;99.90
37356;DHT22;48747;50.250;18.848;2022-09-14T06:50:31;18.50;99.90
37356;DHT22;48747;50.250;18.848;2022-09-14T06:52:35;18.50;99.90
37356;DHT22;48747;50.250;18.848;2022-09-14T06:54:40;18.50;99.90
37356;DHT22;48747;50.250;18.848;2022-09-14T06:56:44;18.60;99.90
37356;DHT22;48747;50.250;18.848;2022-09-14T06:58:48;18.60;99.90
37356;DHT22;48747;50.250;18.848;2022-09-14T07:00:52;18.70;99.90
37356;DHT22;48747;50.250;18.848;2022-09-14T07:02:55;18.80;99.90
37356;DHT22;48747;50.250;18.848;2022-09-14T07:04:58;18.80;99.90
37356;DHT22;48747;50.250;18.848;2022-09-14T07:07:01;18.90;99.90
37356;DHT22;48747;50.250;18.848;2022-09-14T07:09:05;19.00;99.90
37356;DHT22;48747;50.250;18.848;2022-09-14T07:11:10;19.00;99.90
37356;DHT22;48747;50.250;18.848;2022-09-14T07:13:13;19.00;99.90
37356;DHT22;48747;50.250;18.848;2022-09-14T07:15:16;19.00;99.90
37356;DHT22;48747;50.250;18.848;2022-09-14T07:17:19;18.90;99.90
37356;DHT22;48747;50.250;18.848;2022-09-14T07:19:22;18.80;99.90
37356;DHT22;48747;50.250;18.848;2022-09-14T07:21:25;18.90;99.90
37356;DHT22;48747;50.250;18.848;2022-09-14T07:23:29;18.90;99.90
37356;DHT22;48747;50.250;18.848;2022-09-14T07:25:32;18.80;99.90
37356;DHT22;48747;50.250;18.848;2022-09-14T07:27:35;18.80;99.90
37356;DHT22;48747;50.250;18.848;2022-09-14T07:29:41;18.80;99.90
37356;DHT22;48747;50.250;18.848;2022-09-14T07:31:46;18.80;99.90
37356;DHT22;48747;50.250;18.848;2022-09-14T07:33:54;18.80;99.90
37356;DHT22;48747;50.250;18.848;2022-09-14T07:36:05;18.80;99.90
37356;DHT22;48747;50.250;18.848;2022-09-14T07:38:08;19.00;99.90
37356;DHT22;48747;50.250;18.848;2022-09-14T07:40:11;19.00;99.90
37356;DHT22;48747;50.250;18.848;2022-09-14T07:42:14;19.00;99.90
37356;DHT22;48747;50.250;18.848;2022-09-14T07:44:17;19.10;99.90
37356;DHT22;48747;50.250;18.848;2022-09-14T07:46:22;19.00;99.90
37356;DHT22;48747;50.250;18.848;2022-09-14T07:48:25;19.00;99.90
37356;DHT22;48747;50.250;18.848;2022-09-14T07:50:28;19.10;99.90
37356;DHT22;48747;50.250;18.848;2022-09-14T07:52:31;19.10;99.90
37356;DHT22;48747;50.250;18.848;2022-09-14T07:54:34;19.20;99.90
37356;DHT22;48747;50.250;18.848;2022-09-14T07:56:38;19.30;99.90
37356;DHT22;48747;50.250;18.848;2022-09-14T07:58:41;19.40;99.90
37356;DHT22;48747;50.250;18.848;2022-09-14T08:00:44;19.40;99.90
37356;DHT22;48747;50.250;18.848;2022-09-14T08:02:52;19.50;99.90
37356;DHT22;48747;50.250;18.848;2022-09-14T08:05:02;19.60;99.90
37356;DHT22;48747;50.250;18.848;2022-09-14T08:07:01;19.60;99.90
37356;DHT22;48747;50.250;18.848;2022-09-14T08:09:11;19.60;99.90
37356;DHT22;48747;50.250;18.848;2022-09-14T08:11:29;19.70;99.90
37356;DHT22;48747;50.250;18.848;2022-09-14T08:13:29;19.80;99.90
37356;DHT22;48747;50.250;18.848;2022-09-14T08:15:32;19.80;99.90
37356;DHT22;48747;50.250;18.848;2022-09-14T08:17:35;19.80;99.90
37356;DHT22;48747;50.250;18.848;2022-09-14T08:19:38;19.90;99.90
37356;DHT22;48747;50.250;18.848;2022-09-14T08:21:42;19.90;99.90
37356;DHT22;48747;50.250;18.848;2022-09-14T08:23:46;20.00;99.90
37356;DHT22;48747;50.250;18.848;2022-09-14T08:25:49;20.10;99.90
37356;DHT22;48747;50.250;18.848;2022-09-14T08:27:52;20.20;99.90
37356;DHT22;48747;50.250;18.848;2022-09-14T08:29:55;20.30;99.90
37356;DHT22;48747;50.250;18.848;2022-09-14T08:31:58;20.30;99.90
37356;DHT22;48747;50.250;18.848;2022-09-14T08:34:02;20.40;99.90
37356;DHT22;48747;50.250;18.848;2022-09-14T08:36:07;20.50;99.90
37356;DHT22;48747;50.250;18.848;2022-09-14T08:38:10;20.60;99.90
37356;DHT22;48747;50.250;18.848;2022-09-14T08:40:13;20.70;99.90
37356;DHT22;48747;50.250;18.848;2022-09-14T08:42:19;20.80;99.90
37356;DHT22;48747;50.250;18.848;2022-09-14T08:44:27;20.90;99.90
37356;DHT22;48747;50.250;18.848;2022-09-14T08:46:33;21.00;99.90
37356;DHT22;48747;50.250;18.848;2022-09-14T08:48:40;20.90;99.90
37356;DHT22;48747;50.250;18.848;2022-09-14T08:50:43;20.80;99.90
37356;DHT22;48747;50.250;18.848;2022-09-14T08:52:51;20.90;99.90
37356;DHT22;48747;50.250;18.848;2022-09-14T08:54:57;21.00;99.90
37356;DHT22;48747;50.250;18.848;2022-09-14T08:57:14;21.10;99.90
37356;DHT22;48747;50.250;18.848;2022-09-14T08:59:32;21.20;99.90
37356;DHT22;48747;50.250;18.848;2022-09-14T09:01:46;21.30;99.90
37356;DHT22;48747;50.250;18.848;2022-09-14T09:06:45;21.30;99.90
37356;DHT22;48747;50.250;18.848;2022-09-14T09:11:07;21.50;99.90
37356;DHT22;48747;50.250;18.848;2022-09-14T09:13:10;21.50;99.90
37356;DHT22;48747;50.250;18.848;2022-09-14T09:17:39;21.70;99.90
37356;DHT22;48747;50.250;18.848;2022-09-14T09:20:09;21.70;99.90
37356;DHT22;48747;50.250;18.848;2022-09-14T09:22:20;21.80;99.90
37356;DHT22;48747;50.250;18.848;2022-09-14T09:24:41;21.80;99.90
37356;DHT22;48747;50.250;18.848;2022-09-14T09:26:46;21.80;99.90
37356;DHT22;48747;50.250;18.848;2022-09-14T09:28:57;21.80;99.90
37356;DHT22;48747;50.250;18.848;2022-09-14T09:31:13;21.80;99.90
37356;DHT22;48747;50.250;18.848;2022-09-14T09:33:05;21.70;99.90
37356;DHT22;48747;50.250;18.848;2022-09-14T09:35:18;21.60;99.90
37356;DHT22;48747;50.250;18.848;2022-09-14T09:37:36;21.50;99.90
37356;DHT22;48747;50.250;18.848;2022-09-14T09:39:32;21.60;99.90
37356;DHT22;48747;50.250;18.848;2022-09-14T09:41:50;21.60;99.90
37356;DHT22;48747;50.250;18.848;2022-09-14T09:44:12;21.70;99.90
37356;DHT22;48747;50.250;18.848;2022-09-14T09:56:33;21.90;99.90
37356;DHT22;48747;50.250;18.848;2022-09-14T10:03:38;21.90;99.90
37356;DHT22;48747;50.250;18.848;2022-09-14T10:05:45;21.80;99.90
37356;DHT22;48747;50.250;18.848;2022-09-14T10:08:00;21.70;99.90
37356;DHT22;48747;50.250;18.848;2022-09-14T10:10:08;21.60;99.90
37356;DHT22;48747;50.250;18.848;2022-09-14T10:12:32;21.40;99.90
37356;DHT22;48747;50.250;18.848;2022-09-14T10:14:54;21.30;99.90
37356;DHT22;48747;50.250;18.848;2022-09-14T10:17:01;21.20;99.90
37356;DHT22;48747;50.250;18.848;2022-09-14T10:18:58;21.10;99.90
37356;DHT22;48747;50.250;18.848;2022-09-14T10:23:23;21.00;99.90
37356;DHT22;48747;50.250;18.848;2022-09-14T10:25:32;21.00;99.90
37356;DHT22;48747;50.250;18.848;2022-09-14T10:30:03;20.90;99.90
37356;DHT22;48747;50.250;18.848;2022-09-14T10:34:17;20.80;99.90
37356;DHT22;48747;50.250;18.848;2022-09-14T10:36:45;20.70;99.90
37356;DHT22;48747;50.250;18.848;2022-09-14T10:46:04;20.50;99.90
37356;DHT22;48747;50.250;18.848;2022-09-14T10:48:21;20.50;99.90
37356;DHT22;48747;50.250;18.848;2022-09-14T10:53:09;20.40;99.90
37356;DHT22;48747;50.250;18.848;2022-09-14T10:59:56;20.10;99.90
37356;DHT22;48747;50.250;18.848;2022-09-14T11:30:03;19.20;99.90
37356;DHT22;48747;50.250;18.848;2022-09-14T11:32:11;19.20;99.90
37356;DHT22;48747;50.250;18.848;2022-09-14T11:37:28;19.20;99.90
37356;DHT22;48747;50.250;18.848;2022-09-14T11:41:37;19.20;99.90
37356;DHT22;48747;50.250;18.848;2022-09-14T12:21:00;18.50;99.90
37356;DHT22;48747;50.250;18.848;2022-09-14T12:41:56;18.60;99.90
37356;DHT22;48747;50.250;18.848;2022-09-14T13:47:53;19.30;99.90
37356;DHT22;48747;50.250;18.848;2022-09-14T13:54:47;19.60;99.90
37356;DHT22;48747;50.250;18.848;2022-09-14T13:59:33;19.60;99.90
37356;DHT22;48747;50.250;18.848;2022-09-14T14:01:42;19.70;99.90
37356;DHT22;48747;50.250;18.848;2022-09-14T14:12:35;19.70;99.90
37356;DHT22;48747;50.250;18.848;2022-09-14T14:14:42;19.50;99.90
37356;DHT22;48747;50.250;18.848;2022-09-14T14:26:27;18.70;99.90
37356;DHT22;48747;50.250;18.848;2022-09-14T14:28:32;18.60;99.90
37356;DHT22;48747;50.250;18.848;2022-09-14T14:30:37;18.60;99.90
37356;DHT22;48747;50.250;18.848;2022-09-14T14:32:41;18.60;99.90
37356;DHT22;48747;50.250;18.848;2022-09-14T14:34:44;18.60;99.90
37356;DHT22;48747;50.250;18.848;2022-09-14T14:36:47;18.60;99.90
37356;DHT22;48747;50.250;18.848;2022-09-14T14:38:51;18.60;99.90
37356;DHT22;48747;50.250;18.848;2022-09-14T14:40:54;18.60;99.90
37356;DHT22;48747;50.250;18.848;2022-09-14T14:43:00;18.60;99.90
37356;DHT22;48747;50.250;18.848;2022-09-14T14:45:22;18.60;99.90
37356;DHT22;48747;50.250;18.848;2022-09-14T14:47:27;18.50;99.90
37356;DHT22;48747;50.250;18.848;2022-09-14T14:49:31;18.50;99.90
37356;DHT22;48747;50.250;18.848;2022-09-14T14:51:36;18.50;99.90
37356;DHT22;48747;50.250;18.848;2022-09-14T14:53:40;18.50;99.90
37356;DHT22;48747;50.250;18.848;2022-09-14T14:55:43;18.50;99.90
37356;DHT22;48747;50.250;18.848;2022-09-14T14:57:48;18.40;99.90
37356;DHT22;48747;50.250;18.848;2022-09-14T14:59:51;18.40;99.90
37356;DHT22;48747;50.250;18.848;2022-09-14T15:01:55;18.40;99.90
37356;DHT22;48747;50.250;18.848;2022-09-14T15:03:58;18.30;99.90
37356;DHT22;48747;50.250;18.848;2022-09-14T15:06:19;18.30;99.90
37356;DHT22;48747;50.250;18.848;2022-09-14T15:08:25;18.30;99.90
37356;DHT22;48747;50.250;18.848;2022-09-14T15:10:28;18.20;99.90
37356;DHT22;48747;50.250;18.848;2022-09-14T15:12:32;18.20;99.90
37356;DHT22;48747;50.250;18.848;2022-09-14T15:14:37;18.20;99.90
37356;DHT22;48747;50.250;18.848;2022-09-14T15:16:41;18.10;99.90
37356;DHT22;48747;50.250;18.848;2022-09-14T15:18:44;18.10;99.90
37356;DHT22;48747;50.250;18.848;2022-09-14T15:20:47;18.20;99.90
37356;DHT22;48747;50.250;18.848;2022-09-14T15:22:52;18.20;99.90
37356;DHT22;48747;50.250;18.848;2022-09-14T15:24:59;18.20;99.90
37356;DHT22;48747;50.250;18.848;2022-09-14T15:27:03;18.10;99.90
37356;DHT22;48747;50.250;18.848;2022-09-14T15:29:09;18.10;99.90
37356;DHT22;48747;50.250;18.848;2022-09-14T15:31:15;18.10;99.90
37356;DHT22;48747;50.250;18.848;2022-09-14T15:33:18;18.10;99.90
37356;DHT22;48747;50.250;18.848;2022-09-14T15:35:21;18.00;99.90
37356;DHT22;48747;50.250;18.848;2022-09-14T15:37:24;18.10;99.90
37356;DHT22;48747;50.250;18.848;2022-09-14T15:39:29;18.00;99.90
37356;DHT22;48747;50.250;18.848;2022-09-14T15:41:34;18.00;99.90
37356;DHT22;48747;50.250;18.848;2022-09-14T15:56:48;17.90;99.90
37356;DHT22;48747;50.250;18.848;2022-09-14T15:59:01;17.90;99.90
37356;DHT22;48747;50.250;18.848;2022-09-14T16:00:58;17.90;99.90
37356;DHT22;48747;50.250;18.848;2022-09-14T16:03:04;17.90;99.90
37356;DHT22;48747;50.250;18.848;2022-09-14T16:05:09;17.80;99.90
37356;DHT22;48747;50.250;18.848;2022-09-14T16:07:12;17.80;99.90
37356;DHT22;48747;50.250;18.848;2022-09-14T16:09:16;17.80;99.90
37356;DHT22;48747;50.250;18.848;2022-09-14T16:11:21;17.70;99.90
37356;DHT22;48747;50.250;18.848;2022-09-14T16:13:27;17.70;99.90
37356;DHT22;48747;50.250;18.848;2022-09-14T16:15:33;17.70;99.90
37356;DHT22;48747;50.250;18.848;2022-09-14T16:17:38;17.70;99.90
37356;DHT22;48747;50.250;18.848;2022-09-14T16:19:42;17.60;99.90
37356;DHT22;48747;50.250;18.848;2022-09-14T16:21:45;17.60;99.90
37356;DHT22;48747;50.250;18.848;2022-09-14T16:23:51;17.60;99.90
37356;DHT22;48747;50.250;18.848;2022-09-14T16:25:56;17.60;99.90
37356;DHT22;48747;50.250;18.848;2022-09-14T16:27:59;17.60;99.90
37356;DHT22;48747;50.250;18.848;2022-09-14T16:30:03;17.50;99.90
37356;DHT22;48747;50.250;18.848;2022-09-14T16:32:06;17.50;99.90
37356;DHT22;48747;50.250;18.848;2022-09-14T16:34:14;17.50;99.90
37356;DHT22;48747;50.250;18.848;2022-09-14T16:36:21;17.50;99.90
37356;DHT22;48747;50.250;18.848;2022-09-14T16:38:24;17.50;99.90
37356;DHT22;48747;50.250;18.848;2022-09-14T16:40:27;17.50;99.90
37356;DHT22;48747;50.250;18.848;2022-09-14T16:42:30;17.60;99.90
37356;DHT22;48747;50.250;18.848;2022-09-14T16:44:33;17.60;99.90
37356;DHT22;48747;50.250;18.848;2022-09-14T16:46:36;17.50;99.90
37356;DHT22;48747;50.250;18.848;2022-09-14T16:48:44;17.50;99.90
37356;DHT22;48747;50.250;18.848;2022-09-14T16:50:51;17.40;99.90
37356;DHT22;48747;50.250;18.848;2022-09-14T16:52:56;17.40;99.90
37356;DHT22;48747;50.250;18.848;2022-09-14T16:55:01;17.40;99.90
37356;DHT22;48747;50.250;18.848;2022-09-14T16:57:05;17.40;99.90
37356;DHT22;48747;50.250;18.848;2022-09-14T16:59:14;17.40;99.90
37356;DHT22;48747;50.250;18.848;2022-09-14T17:01:27;17.40;99.90
37356;DHT22;48747;50.250;18.848;2022-09-14T17:03:26;17.30;99.90
37356;DHT22;48747;50.250;18.848;2022-09-14T17:05:30;17.30;99.90
37356;DHT22;48747;50.250;18.848;2022-09-14T17:07:33;17.30;99.90
37356;DHT22;48747;50.250;18.848;2022-09-14T17:09:42;17.40;99.90
37356;DHT22;48747;50.250;18.848;2022-09-14T17:11:42;17.30;99.90
37356;DHT22;48747;50.250;18.848;2022-09-14T17:13:46;17.20;99.90
37356;DHT22;48747;50.250;18.848;2022-09-14T17:15:49;17.20;99.90
37356;DHT22;48747;50.250;18.848;2022-09-14T17:17:52;17.20;99.90
37356;DHT22;48747;50.250;18.848;2022-09-14T17:19:57;17.20;99.90